sensor_id;sensor_type;location;lat;lon;timestamp;temperature;humidity
70366;DHT22;57787;48.216;12.396;2022-10-17T00:01:29;11.20;90.10
70366;DHT22;57787;48.216;12.396;2022-10-17T00:03:55;11.10;89.90
70366;DHT22;57787;48.216;12.396;2022-10-17T00:06:22;11.10;89.80
70366;DHT22;57787;48.216;12.396;2022-10-17T00:08:49;11.00;89.60
70366;DHT22;57787;48.216;12.396;2022-10-17T00:11:17;11.00;89.80
70366;DHT22;57787;48.216;12.396;2022-10-17T00:13:45;11.00;89.70
70366;DHT22;57787;48.216;12.396;2022-10-17T00:16:12;11.00;89.80
70366;DHT22;57787;48.216;12.396;2022-10-17T00:18:38;10.90;89.80
70366;DHT22;57787;48.216;12.396;2022-10-17T00:21:13;10.90;89.90
70366;DHT22;57787;48.216;12.396;2022-10-17T00:23:40;10.90;89.60
70366;DHT22;57787;48.216;12.396;2022-10-17T00:26:07;10.90;89.70
70366;DHT22;57787;48.216;12.396;2022-10-17T00:28:33;10.80;89.80
70366;DHT22;57787;48.216;12.396;2022-10-17T00:31:04;10.80;89.70
70366;DHT22;57787;48.216;12.396;2022-10-17T00:33:31;10.80;89.50
70366;DHT22;57787;48.216;12.396;2022-10-17T00:36:04;10.80;89.80
70366;DHT22;57787;48.216;12.396;2022-10-17T00:38:32;10.70;90.10
70366;DHT22;57787;48.216;12.396;2022-10-17T00:40:59;10.70;90.00
70366;DHT22;57787;48.216;12.396;2022-10-17T00:43:26;10.70;90.00
70366;DHT22;57787;48.216;12.396;2022-10-17T00:45:53;10.60;90.00
70366;DHT22;57787;48.216;12.396;2022-10-17T00:48:20;10.60;89.90
70366;DHT22;57787;48.216;12.396;2022-10-17T00:50:48;10.60;90.00
70366;DHT22;57787;48.216;12.396;2022-10-17T00:53:16;10.60;90.00
70366;DHT22;57787;48.216;12.396;2022-10-17T00:55:45;10.50;90.50
70366;DHT22;57787;48.216;12.396;2022-10-17T00:58:13;10.50;90.40
70366;DHT22;57787;48.216;12.396;2022-10-17T01:00:43;10.50;90.10
70366;DHT22;57787;48.216;12.396;2022-10-17T01:03:10;10.50;90.10
70366;DHT22;57787;48.216;12.396;2022-10-17T01:05:37;10.50;90.50
70366;DHT22;57787;48.216;12.396;2022-10-17T01:08:04;10.40;90.20
70366;DHT22;57787;48.216;12.396;2022-10-17T01:10:53;10.40;89.80
70366;DHT22;57787;48.216;12.396;2022-10-17T01:13:23;10.40;89.90
70366;DHT22;57787;48.216;12.396;2022-10-17T01:24:07;10.30;90.00
70366;DHT22;57787;48.216;12.396;2022-10-17T01:32:02;10.10;90.00
70366;DHT22;57787;48.216;12.396;2022-10-17T01:34:34;10.20;90.10
70366;DHT22;57787;48.216;12.396;2022-10-17T01:37:18;10.20;90.30
70366;DHT22;57787;48.216;12.396;2022-10-17T01:43:02;10.20;90.50
70366;DHT22;57787;48.216;12.396;2022-10-17T01:45:10;10.10;90.60
70366;DHT22;57787;48.216;12.396;2022-10-17T01:47:38;10.20;90.90
70366;DHT22;57787;48.216;12.396;2022-10-17T01:50:09;10.30;91.10
70366;DHT22;57787;48.216;12.396;2022-10-17T01:52:38;10.30;91.20
70366;DHT22;57787;48.216;12.396;2022-10-17T01:55:17;10.30;91.20
70366;DHT22;57787;48.216;12.396;2022-10-17T01:57:51;10.30;91.10
70366;DHT22;57787;48.216;12.396;2022-10-17T02:00:21;10.30;90.90
70366;DHT22;57787;48.216;12.396;2022-10-17T02:02:49;10.30;90.90
70366;DHT22;57787;48.216;12.396;2022-10-17T02:05:19;10.30;90.90
70366;DHT22;57787;48.216;12.396;2022-10-17T02:07:47;10.30;90.90
70366;DHT22;57787;48.216;12.396;2022-10-17T02:10:28;10.30;91.10
70366;DHT22;57787;48.216;12.396;2022-10-17T02:15:52;10.30;91.00
70366;DHT22;57787;48.216;12.396;2022-10-17T02:18:40;10.30;91.00
70366;DHT22;57787;48.216;12.396;2022-10-17T02:21:22;10.40;91.30
70366;DHT22;57787;48.216;12.396;2022-10-17T02:26:24;10.40;91.30
70366;DHT22;57787;48.216;12.396;2022-10-17T02:29:06;10.50;91.50
70366;DHT22;57787;48.216;12.396;2022-10-17T02:31:39;10.50;91.60
70366;DHT22;57787;48.216;12.396;2022-10-17T02:34:15;10.60;91.90
70366;DHT22;57787;48.216;12.396;2022-10-17T02:36:51;10.60;91.90
70366;DHT22;57787;48.216;12.396;2022-10-17T02:39:19;10.70;92.00
70366;DHT22;57787;48.216;12.396;2022-10-17T02:41:48;10.70;92.10
70366;DHT22;57787;48.216;12.396;2022-10-17T02:44:15;10.80;92.70
70366;DHT22;57787;48.216;12.396;2022-10-17T02:46:43;10.80;92.70
70366;DHT22;57787;48.216;12.396;2022-10-17T02:49:22;10.80;92.60
70366;DHT22;57787;48.216;12.396;2022-10-17T02:54:22;10.90;92.60
70366;DHT22;57787;48.216;12.396;2022-10-17T02:56:57;10.90;92.90
70366;DHT22;57787;48.216;12.396;2022-10-17T02:59:26;10.90;92.90
70366;DHT22;57787;48.216;12.396;2022-10-17T03:01:55;11.00;92.70
70366;DHT22;57787;48.216;12.396;2022-10-17T03:04:22;11.00;92.80
70366;DHT22;57787;48.216;12.396;2022-10-17T03:06:48;11.00;92.80
70366;DHT22;57787;48.216;12.396;2022-10-17T03:09:15;11.00;92.90
70366;DHT22;57787;48.216;12.396;2022-10-17T03:11:42;11.00;92.80
70366;DHT22;57787;48.216;12.396;2022-10-17T03:14:09;11.10;92.80
70366;DHT22;57787;48.216;12.396;2022-10-17T03:16:35;11.10;92.80
70366;DHT22;57787;48.216;12.396;2022-10-17T03:19:04;11.10;92.70
70366;DHT22;57787;48.216;12.396;2022-10-17T03:21:31;11.10;92.80
70366;DHT22;57787;48.216;12.396;2022-10-17T03:23:58;11.10;92.90
70366;DHT22;57787;48.216;12.396;2022-10-17T03:26:24;11.10;92.90
70366;DHT22;57787;48.216;12.396;2022-10-17T03:28:51;11.10;92.60
70366;DHT22;57787;48.216;12.396;2022-10-17T03:31:21;11.00;92.40
70366;DHT22;57787;48.216;12.396;2022-10-17T03:33:47;11.00;92.40
70366;DHT22;57787;48.216;12.396;2022-10-17T03:36:15;10.90;92.20
70366;DHT22;57787;48.216;12.396;2022-10-17T03:38:42;10.90;92.00
70366;DHT22;57787;48.216;12.396;2022-10-17T03:41:10;10.90;91.70
70366;DHT22;57787;48.216;12.396;2022-10-17T03:43:38;10.80;91.60
70366;DHT22;57787;48.216;12.396;2022-10-17T03:46:05;10.80;91.40
70366;DHT22;57787;48.216;12.396;2022-10-17T03:48:34;10.70;91.30
70366;DHT22;57787;48.216;12.396;2022-10-17T03:51:02;10.70;91.10
70366;DHT22;57787;48.216;12.396;2022-10-17T03:53:29;10.60;90.90
70366;DHT22;57787;48.216;12.396;2022-10-17T03:55:56;10.60;91.10
70366;DHT22;57787;48.216;12.396;2022-10-17T03:58:23;10.60;91.10
70366;DHT22;57787;48.216;12.396;2022-10-17T04:00:49;10.50;91.10
70366;DHT22;57787;48.216;12.396;2022-10-17T04:03:16;10.50;91.40
70366;DHT22;57787;48.216;12.396;2022-10-17T04:05:43;10.50;91.70
70366;DHT22;57787;48.216;12.396;2022-10-17T04:08:09;10.60;91.70
70366;DHT22;57787;48.216;12.396;2022-10-17T04:10:36;10.50;91.70
70366;DHT22;57787;48.216;12.396;2022-10-17T04:13:03;10.50;91.50
70366;DHT22;57787;48.216;12.396;2022-10-17T04:15:30;10.40;91.50
70366;DHT22;57787;48.216;12.396;2022-10-17T04:17:56;10.40;91.30
70366;DHT22;57787;48.216;12.396;2022-10-17T04:20:24;10.30;91.30
70366;DHT22;57787;48.216;12.396;2022-10-17T04:22:51;10.30;91.20
70366;DHT22;57787;48.216;12.396;2022-10-17T04:25:17;10.30;91.20
70366;DHT22;57787;48.216;12.396;2022-10-17T04:27:44;10.30;91.20
70366;DHT22;57787;48.216;12.396;2022-10-17T04:30:11;10.30;91.10
70366;DHT22;57787;48.216;12.396;2022-10-17T04:32:37;10.30;91.40
70366;DHT22;57787;48.216;12.396;2022-10-17T04:35:05;10.30;91.60
70366;DHT22;57787;48.216;12.396;2022-10-17T04:37:32;10.30;91.90
70366;DHT22;57787;48.216;12.396;2022-10-17T04:39:59;10.30;91.70
70366;DHT22;57787;48.216;12.396;2022-10-17T04:42:27;10.30;91.70
70366;DHT22;57787;48.216;12.396;2022-10-17T04:44:54;10.20;91.70
70366;DHT22;57787;48.216;12.396;2022-10-17T04:47:21;10.20;91.40
70366;DHT22;57787;48.216;12.396;2022-10-17T04:49:47;10.20;91.40
70366;DHT22;57787;48.216;12.396;2022-10-17T04:52:14;10.20;91.30
70366;DHT22;57787;48.216;12.396;2022-10-17T04:54:41;10.10;91.20
70366;DHT22;57787;48.216;12.396;2022-10-17T04:57:08;10.10;91.20
70366;DHT22;57787;48.216;12.396;2022-10-17T04:59:35;10.00;91.10
70366;DHT22;57787;48.216;12.396;2022-10-17T05:02:02;9.90;90.90
70366;DHT22;57787;48.216;12.396;2022-10-17T05:04:29;9.90;90.80
70366;DHT22;57787;48.216;12.396;2022-10-17T05:06:56;9.80;91.00
70366;DHT22;57787;48.216;12.396;2022-10-17T05:09:23;9.90;91.30
70366;DHT22;57787;48.216;12.396;2022-10-17T05:11:50;9.80;91.20
70366;DHT22;57787;48.216;12.396;2022-10-17T05:14:17;9.80;91.20
70366;DHT22;57787;48.216;12.396;2022-10-17T05:16:44;9.80;91.20
70366;DHT22;57787;48.216;12.396;2022-10-17T05:19:11;9.80;91.00
70366;DHT22;57787;48.216;12.396;2022-10-17T05:21:38;9.80;90.90
70366;DHT22;57787;48.216;12.396;2022-10-17T05:24:06;9.70;90.70
70366;DHT22;57787;48.216;12.396;2022-10-17T05:26:33;9.60;90.70
70366;DHT22;57787;48.216;12.396;2022-10-17T05:29:03;9.60;90.60
70366;DHT22;57787;48.216;12.396;2022-10-17T05:31:33;9.50;90.30
70366;DHT22;57787;48.216;12.396;2022-10-17T05:34:02;9.50;90.30
70366;DHT22;57787;48.216;12.396;2022-10-17T05:36:31;9.40;90.30
70366;DHT22;57787;48.216;12.396;2022-10-17T05:38:59;9.40;90.90
70366;DHT22;57787;48.216;12.396;2022-10-17T05:41:26;9.50;91.50
70366;DHT22;57787;48.216;12.396;2022-10-17T05:43:52;9.50;91.50
70366;DHT22;57787;48.216;12.396;2022-10-17T05:46:19;9.60;91.90
70366;DHT22;57787;48.216;12.396;2022-10-17T05:48:46;9.60;92.20
70366;DHT22;57787;48.216;12.396;2022-10-17T05:51:12;9.60;92.20
70366;DHT22;57787;48.216;12.396;2022-10-17T05:53:40;9.70;92.50
70366;DHT22;57787;48.216;12.396;2022-10-17T05:56:07;9.70;92.50
70366;DHT22;57787;48.216;12.396;2022-10-17T05:58:34;9.80;92.50
70366;DHT22;57787;48.216;12.396;2022-10-17T06:01:16;9.80;92.50
70366;DHT22;57787;48.216;12.396;2022-10-17T06:03:43;9.80;92.60
70366;DHT22;57787;48.216;12.396;2022-10-17T06:06:12;9.90;92.70
70366;DHT22;57787;48.216;12.396;2022-10-17T06:08:39;10.00;92.70
70366;DHT22;57787;48.216;12.396;2022-10-17T06:11:10;10.00;92.60
70366;DHT22;57787;48.216;12.396;2022-10-17T06:13:38;10.10;92.50
70366;DHT22;57787;48.216;12.396;2022-10-17T06:16:11;10.10;92.60
70366;DHT22;57787;48.216;12.396;2022-10-17T06:18:44;10.20;92.50
70366;DHT22;57787;48.216;12.396;2022-10-17T06:21:11;10.20;92.40
70366;DHT22;57787;48.216;12.396;2022-10-17T06:23:41;10.30;92.40
70366;DHT22;57787;48.216;12.396;2022-10-17T06:26:07;10.30;92.50
70366;DHT22;57787;48.216;12.396;2022-10-17T06:28:34;10.40;92.50
70366;DHT22;57787;48.216;12.396;2022-10-17T06:31:09;10.40;92.30
70366;DHT22;57787;48.216;12.396;2022-10-17T06:33:36;10.40;92.10
70366;DHT22;57787;48.216;12.396;2022-10-17T06:36:03;10.50;92.20
70366;DHT22;57787;48.216;12.396;2022-10-17T06:38:30;10.50;92.20
70366;DHT22;57787;48.216;12.396;2022-10-17T06:41:04;10.60;92.20
70366;DHT22;57787;48.216;12.396;2022-10-17T06:43:36;10.60;92.20
70366;DHT22;57787;48.216;12.396;2022-10-17T06:46:03;10.60;92.00
70366;DHT22;57787;48.216;12.396;2022-10-17T06:48:30;10.70;91.90
70366;DHT22;57787;48.216;12.396;2022-10-17T06:50:58;10.80;92.20
70366;DHT22;57787;48.216;12.396;2022-10-17T06:53:26;10.80;92.10
70366;DHT22;57787;48.216;12.396;2022-10-17T06:56:02;10.80;91.80
70366;DHT22;57787;48.216;12.396;2022-10-17T06:58:30;10.80;91.50
70366;DHT22;57787;48.216;12.396;2022-10-17T07:01:02;10.90;91.60
70366;DHT22;57787;48.216;12.396;2022-10-17T07:03:29;10.90;91.40
70366;DHT22;57787;48.216;12.396;2022-10-17T07:05:56;10.90;91.00
70366;DHT22;57787;48.216;12.396;2022-10-17T07:08:25;10.90;90.90
70366;DHT22;57787;48.216;12.396;2022-10-17T07:10:52;10.90;91.20
70366;DHT22;57787;48.216;12.396;2022-10-17T07:13:18;11.00;91.10
70366;DHT22;57787;48.216;12.396;2022-10-17T07:15:45;11.00;91.00
70366;DHT22;57787;48.216;12.396;2022-10-17T07:18:12;11.10;91.60
70366;DHT22;57787;48.216;12.396;2022-10-17T07:20:39;11.20;92.00
70366;DHT22;57787;48.216;12.396;2022-10-17T07:23:06;11.30;91.50
70366;DHT22;57787;48.216;12.396;2022-10-17T07:25:33;11.30;91.50
70366;DHT22;57787;48.216;12.396;2022-10-17T07:28:05;11.40;91.70
70366;DHT22;57787;48.216;12.396;2022-10-17T07:30:32;11.50;91.50
70366;DHT22;57787;48.216;12.396;2022-10-17T07:32:59;11.60;92.00
70366;DHT22;57787;48.216;12.396;2022-10-17T07:35:27;11.60;91.10
70366;DHT22;57787;48.216;12.396;2022-10-17T07:37:54;11.70;91.70
70366;DHT22;57787;48.216;12.396;2022-10-17T07:40:21;11.80;92.00
70366;DHT22;57787;48.216;12.396;2022-10-17T07:42:47;11.90;91.80
70366;DHT22;57787;48.216;12.396;2022-10-17T07:45:15;12.00;90.70
70366;DHT22;57787;48.216;12.396;2022-10-17T07:47:42;12.10;91.20
70366;DHT22;57787;48.216;12.396;2022-10-17T07:50:09;12.20;91.10
70366;DHT22;57787;48.216;12.396;2022-10-17T07:52:36;12.30;91.10
70366;DHT22;57787;48.216;12.396;2022-10-17T07:55:02;12.30;90.80
70366;DHT22;57787;48.216;12.396;2022-10-17T07:57:29;12.40;91.10
70366;DHT22;57787;48.216;12.396;2022-10-17T07:59:56;12.50;91.20
70366;DHT22;57787;48.216;12.396;2022-10-17T08:02:23;12.70;91.40
70366;DHT22;57787;48.216;12.396;2022-10-17T08:04:50;12.80;91.20
70366;DHT22;57787;48.216;12.396;2022-10-17T08:07:18;12.80;90.40
70366;DHT22;57787;48.216;12.396;2022-10-17T08:09:49;12.90;90.10
70366;DHT22;57787;48.216;12.396;2022-10-17T08:12:16;12.90;89.30
70366;DHT22;57787;48.216;12.396;2022-10-17T08:14:43;13.00;88.60
70366;DHT22;57787;48.216;12.396;2022-10-17T08:17:09;13.10;89.80
70366;DHT22;57787;48.216;12.396;2022-10-17T08:19:37;13.20;89.70
70366;DHT22;57787;48.216;12.396;2022-10-17T08:22:03;13.30;89.10
70366;DHT22;57787;48.216;12.396;2022-10-17T08:24:30;13.40;88.80
70366;DHT22;57787;48.216;12.396;2022-10-17T08:26:57;13.40;88.40
70366;DHT22;57787;48.216;12.396;2022-10-17T08:29:26;13.50;87.90
70366;DHT22;57787;48.216;12.396;2022-10-17T08:31:55;13.50;87.60
70366;DHT22;57787;48.216;12.396;2022-10-17T08:34:26;13.60;87.50
70366;DHT22;57787;48.216;12.396;2022-10-17T08:36:53;13.80;87.20
70366;DHT22;57787;48.216;12.396;2022-10-17T08:39:20;13.80;86.20
70366;DHT22;57787;48.216;12.396;2022-10-17T08:44:21;14.10;86.80
70366;DHT22;57787;48.216;12.396;2022-10-17T08:46:51;14.20;85.90
70366;DHT22;57787;48.216;12.396;2022-10-17T08:49:24;14.30;85.00
70366;DHT22;57787;48.216;12.396;2022-10-17T08:51:54;14.30;87.00
70366;DHT22;57787;48.216;12.396;2022-10-17T09:09:34;14.30;87.00
70366;DHT22;57787;48.216;12.396;2022-10-17T09:12:15;14.90;84.00
70366;DHT22;57787;48.216;12.396;2022-10-17T09:18:16;15.00;83.80
70366;DHT22;57787;48.216;12.396;2022-10-17T09:20:43;15.10;83.60
70366;DHT22;57787;48.216;12.396;2022-10-17T09:23:19;15.10;83.40
70366;DHT22;57787;48.216;12.396;2022-10-17T09:25:51;15.10;83.40
70366;DHT22;57787;48.216;12.396;2022-10-17T09:28:26;15.30;83.60
70366;DHT22;57787;48.216;12.396;2022-10-17T09:31:04;15.30;83.40
70366;DHT22;57787;48.216;12.396;2022-10-17T09:33:38;15.30;83.00
70366;DHT22;57787;48.216;12.396;2022-10-17T09:36:30;15.40;83.20
70366;DHT22;57787;48.216;12.396;2022-10-17T09:39:04;15.50;83.50
70366;DHT22;57787;48.216;12.396;2022-10-17T09:41:36;15.60;83.70
70366;DHT22;57787;48.216;12.396;2022-10-17T09:44:14;15.70;83.80
70366;DHT22;57787;48.216;12.396;2022-10-17T09:49:47;15.80;82.70
70366;DHT22;57787;48.216;12.396;2022-10-17T09:52:23;15.90;84.20
70366;DHT22;57787;48.216;12.396;2022-10-17T09:55:06;16.00;85.30
70366;DHT22;57787;48.216;12.396;2022-10-17T09:58:01;16.10;84.90
70366;DHT22;57787;48.216;12.396;2022-10-17T10:00:30;16.20;85.00
70366;DHT22;57787;48.216;12.396;2022-10-17T10:03:22;16.30;85.50
70366;DHT22;57787;48.216;12.396;2022-10-17T10:08:53;16.50;85.70
70366;DHT22;57787;48.216;12.396;2022-10-17T10:14:17;16.70;84.80
70366;DHT22;57787;48.216;12.396;2022-10-17T10:16:47;16.80;83.90
70366;DHT22;57787;48.216;12.396;2022-10-17T10:19:36;16.90;84.60
70366;DHT22;57787;48.216;12.396;2022-10-17T10:22:15;17.00;81.20
70366;DHT22;57787;48.216;12.396;2022-10-17T10:27:17;17.20;79.40
70366;DHT22;57787;48.216;12.396;2022-10-17T10:29:51;17.20;79.10
70366;DHT22;57787;48.216;12.396;2022-10-17T10:32:22;17.30;78.50
70366;DHT22;57787;48.216;12.396;2022-10-17T10:35:05;17.40;78.70
70366;DHT22;57787;48.216;12.396;2022-10-17T10:37:41;17.50;80.80
70366;DHT22;57787;48.216;12.396;2022-10-17T10:40:43;17.50;81.60
70366;DHT22;57787;48.216;12.396;2022-10-17T10:43:41;17.60;82.60
70366;DHT22;57787;48.216;12.396;2022-10-17T10:46:24;17.70;82.10
70366;DHT22;57787;48.216;12.396;2022-10-17T10:48:54;17.80;82.60
70366;DHT22;57787;48.216;12.396;2022-10-17T10:51:32;17.90;82.70
70366;DHT22;57787;48.216;12.396;2022-10-17T10:56:41;18.00;82.60
70366;DHT22;57787;48.216;12.396;2022-10-17T10:59:31;18.20;80.10
70366;DHT22;57787;48.216;12.396;2022-10-17T11:02:22;18.30;78.90
70366;DHT22;57787;48.216;12.396;2022-10-17T11:07:52;18.30;74.40
70366;DHT22;57787;48.216;12.396;2022-10-17T11:10:31;18.40;75.20
70366;DHT22;57787;48.216;12.396;2022-10-17T11:21:45;18.70;77.10
70366;DHT22;57787;48.216;12.396;2022-10-17T11:24:49;18.80;76.50
70366;DHT22;57787;48.216;12.396;2022-10-17T11:27:23;18.80;76.30
70366;DHT22;57787;48.216;12.396;2022-10-17T11:29:50;18.90;77.20
70366;DHT22;57787;48.216;12.396;2022-10-17T11:32:22;19.00;77.70
70366;DHT22;57787;48.216;12.396;2022-10-17T11:34:57;19.10;77.60
70366;DHT22;57787;48.216;12.396;2022-10-17T11:37:33;19.20;77.30
70366;DHT22;57787;48.216;12.396;2022-10-17T11:40:45;19.20;75.70
70366;DHT22;57787;48.216;12.396;2022-10-17T11:45:54;19.30;76.10
70366;DHT22;57787;48.216;12.396;2022-10-17T11:48:35;19.40;76.00
70366;DHT22;57787;48.216;12.396;2022-10-17T11:51:13;19.50;75.80
70366;DHT22;57787;48.216;12.396;2022-10-17T11:54:16;19.60;75.50
70366;DHT22;57787;48.216;12.396;2022-10-17T12:02:29;19.70;72.10
70366;DHT22;57787;48.216;12.396;2022-10-17T12:05:02;19.80;71.80
70366;DHT22;57787;48.216;12.396;2022-10-17T12:10:46;19.80;70.00
70366;DHT22;57787;48.216;12.396;2022-10-17T12:15:55;19.90;68.60
70366;DHT22;57787;48.216;12.396;2022-10-17T12:18:24;20.00;68.80
70366;DHT22;57787;48.216;12.396;2022-10-17T12:20:58;20.00;68.40
70366;DHT22;57787;48.216;12.396;2022-10-17T12:23:31;20.10;68.30
70366;DHT22;57787;48.216;12.396;2022-10-17T12:26:04;20.10;68.60
70366;DHT22;57787;48.216;12.396;2022-10-17T12:28:44;20.20;69.50
70366;DHT22;57787;48.216;12.396;2022-10-17T12:33:48;20.30;69.50
70366;DHT22;57787;48.216;12.396;2022-10-17T12:49:44;20.50;66.10
70366;DHT22;57787;48.216;12.396;2022-10-17T13:03:00;20.70;65.60
70366;DHT22;57787;48.216;12.396;2022-10-17T13:05:31;20.70;65.50
70366;DHT22;57787;48.216;12.396;2022-10-17T13:08:02;20.70;65.20
70366;DHT22;57787;48.216;12.396;2022-10-17T13:10:36;20.70;65.30
70366;DHT22;57787;48.216;12.396;2022-10-17T13:15:53;20.80;65.10
70366;DHT22;57787;48.216;12.396;2022-10-17T13:18:23;20.80;65.20
70366;DHT22;57787;48.216;12.396;2022-10-17T13:21:13;20.80;64.10
70366;DHT22;57787;48.216;12.396;2022-10-17T13:23:40;20.80;63.50
70366;DHT22;57787;48.216;12.396;2022-10-17T13:26:18;20.80;64.90
70366;DHT22;57787;48.216;12.396;2022-10-17T13:29:00;20.90;65.00
70366;DHT22;57787;48.216;12.396;2022-10-17T13:34:00;21.00;65.10
70366;DHT22;57787;48.216;12.396;2022-10-17T13:36:28;21.00;64.60
70366;DHT22;57787;48.216;12.396;2022-10-17T13:38:58;21.00;63.90
70366;DHT22;57787;48.216;12.396;2022-10-17T13:41:27;21.00;64.60
70366;DHT22;57787;48.216;12.396;2022-10-17T13:44:13;21.00;65.00
70366;DHT22;57787;48.216;12.396;2022-10-17T13:46:40;21.00;64.90
70366;DHT22;57787;48.216;12.396;2022-10-17T13:51:53;21.10;64.00
70366;DHT22;57787;48.216;12.396;2022-10-17T13:57:27;21.10;64.20
70366;DHT22;57787;48.216;12.396;2022-10-17T14:00:03;21.10;64.50
70366;DHT22;57787;48.216;12.396;2022-10-17T14:02:37;21.10;64.40
70366;DHT22;57787;48.216;12.396;2022-10-17T14:05:16;21.10;64.70
70366;DHT22;57787;48.216;12.396;2022-10-17T14:07:52;21.10;65.20
70366;DHT22;57787;48.216;12.396;2022-10-17T14:10:41;21.10;64.70
70366;DHT22;57787;48.216;12.396;2022-10-17T14:13:25;21.10;64.10
70366;DHT22;57787;48.216;12.396;2022-10-17T14:15:55;21.10;64.50
70366;DHT22;57787;48.216;12.396;2022-10-17T14:18:34;21.10;64.80
70366;DHT22;57787;48.216;12.396;2022-10-17T14:21:04;21.10;64.90
70366;DHT22;57787;48.216;12.396;2022-10-17T14:24:10;21.00;65.20
70366;DHT22;57787;48.216;12.396;2022-10-17T14:26:59;21.00;65.30
70366;DHT22;57787;48.216;12.396;2022-10-17T14:29:28;21.00;64.30
70366;DHT22;57787;48.216;12.396;2022-10-17T14:31:58;21.00;64.50
70366;DHT22;57787;48.216;12.396;2022-10-17T14:34:32;21.00;64.90
70366;DHT22;57787;48.216;12.396;2022-10-17T14:37:00;20.90;64.70
70366;DHT22;57787;48.216;12.396;2022-10-17T14:39:28;20.90;64.90
70366;DHT22;57787;48.216;12.396;2022-10-17T14:41:55;20.90;64.90
70366;DHT22;57787;48.216;12.396;2022-10-17T14:44:33;20.90;64.60
70366;DHT22;57787;48.216;12.396;2022-10-17T14:47:05;20.80;65.20
70366;DHT22;57787;48.216;12.396;2022-10-17T14:50:19;20.80;65.50
70366;DHT22;57787;48.216;12.396;2022-10-17T14:55:30;20.60;66.80
70366;DHT22;57787;48.216;12.396;2022-10-17T14:57:58;20.50;66.60
70366;DHT22;57787;48.216;12.396;2022-10-17T15:00:25;20.40;66.70
70366;DHT22;57787;48.216;12.396;2022-10-17T15:02:54;20.30;66.90
70366;DHT22;57787;48.216;12.396;2022-10-17T15:05:22;20.30;67.50
70366;DHT22;57787;48.216;12.396;2022-10-17T15:07:50;20.20;67.50
70366;DHT22;57787;48.216;12.396;2022-10-17T15:10:35;20.10;67.80
70366;DHT22;57787;48.216;12.396;2022-10-17T15:13:09;20.00;68.20
70366;DHT22;57787;48.216;12.396;2022-10-17T15:15:53;20.00;67.80
70366;DHT22;57787;48.216;12.396;2022-10-17T15:18:20;19.80;68.80
70366;DHT22;57787;48.216;12.396;2022-10-17T15:20:54;19.80;68.00
70366;DHT22;57787;48.216;12.396;2022-10-17T15:23:32;19.70;69.10
70366;DHT22;57787;48.216;12.396;2022-10-17T15:26:01;19.60;70.00
70366;DHT22;57787;48.216;12.396;2022-10-17T15:28:29;19.50;70.60
70366;DHT22;57787;48.216;12.396;2022-10-17T15:30:56;19.30;71.20
70366;DHT22;57787;48.216;12.396;2022-10-17T15:33:23;19.30;71.40
70366;DHT22;57787;48.216;12.396;2022-10-17T15:35:50;19.20;72.10
70366;DHT22;57787;48.216;12.396;2022-10-17T15:38:18;19.00;72.70
70366;DHT22;57787;48.216;12.396;2022-10-17T15:40:45;18.90;72.90
70366;DHT22;57787;48.216;12.396;2022-10-17T15:43:14;18.80;73.90
70366;DHT22;57787;48.216;12.396;2022-10-17T15:45:46;18.70;73.90
70366;DHT22;57787;48.216;12.396;2022-10-17T15:48:24;18.60;74.10
70366;DHT22;57787;48.216;12.396;2022-10-17T15:50:53;18.50;74.90
70366;DHT22;57787;48.216;12.396;2022-10-17T15:53:21;18.30;75.60
70366;DHT22;57787;48.216;12.396;2022-10-17T15:55:49;18.30;75.70
70366;DHT22;57787;48.216;12.396;2022-10-17T15:58:17;18.10;76.50
70366;DHT22;57787;48.216;12.396;2022-10-17T16:00:44;18.00;77.30
70366;DHT22;57787;48.216;12.396;2022-10-17T16:03:13;17.90;78.10
70366;DHT22;57787;48.216;12.396;2022-10-17T16:05:42;17.80;78.40
70366;DHT22;57787;48.216;12.396;2022-10-17T16:08:09;17.70;79.10
70366;DHT22;57787;48.216;12.396;2022-10-17T16:10:38;17.60;79.00
70366;DHT22;57787;48.216;12.396;2022-10-17T16:13:16;17.50;80.00
70366;DHT22;57787;48.216;12.396;2022-10-17T16:15:43;17.30;80.00
70366;DHT22;57787;48.216;12.396;2022-10-17T16:18:10;17.30;80.10
70366;DHT22;57787;48.216;12.396;2022-10-17T16:20:38;17.10;80.80
70366;DHT22;57787;48.216;12.396;2022-10-17T16:23:04;17.00;81.60
70366;DHT22;57787;48.216;12.396;2022-10-17T16:25:33;16.90;81.20
70366;DHT22;57787;48.216;12.396;2022-10-17T16:28:01;16.80;81.20
70366;DHT22;57787;48.216;12.396;2022-10-17T16:30:30;16.70;81.80
70366;DHT22;57787;48.216;12.396;2022-10-17T16:32:57;16.60;82.10
70366;DHT22;57787;48.216;12.396;2022-10-17T16:35:28;16.50;82.00
70366;DHT22;57787;48.216;12.396;2022-10-17T16:38:02;16.40;82.60
70366;DHT22;57787;48.216;12.396;2022-10-17T16:40:37;16.30;82.60
70366;DHT22;57787;48.216;12.396;2022-10-17T16:43:04;16.20;83.00
70366;DHT22;57787;48.216;12.396;2022-10-17T16:45:31;16.10;83.30
70366;DHT22;57787;48.216;12.396;2022-10-17T16:47:58;16.00;82.70
70366;DHT22;57787;48.216;12.396;2022-10-17T16:50:24;15.90;82.40
70366;DHT22;57787;48.216;12.396;2022-10-17T16:52:51;15.80;83.50
70366;DHT22;57787;48.216;12.396;2022-10-17T16:55:20;15.80;83.00
70366;DHT22;57787;48.216;12.396;2022-10-17T16:57:47;15.70;84.00
70366;DHT22;57787;48.216;12.396;2022-10-17T17:00:15;15.60;83.50
70366;DHT22;57787;48.216;12.396;2022-10-17T17:02:43;15.50;83.60
70366;DHT22;57787;48.216;12.396;2022-10-17T17:05:10;15.50;84.00
70366;DHT22;57787;48.216;12.396;2022-10-17T17:07:38;15.40;84.00
70366;DHT22;57787;48.216;12.396;2022-10-17T17:10:05;15.30;83.80
70366;DHT22;57787;48.216;12.396;2022-10-17T17:12:34;15.30;84.00
70366;DHT22;57787;48.216;12.396;2022-10-17T17:15:01;15.20;84.20
70366;DHT22;57787;48.216;12.396;2022-10-17T17:17:28;15.10;84.90
70366;DHT22;57787;48.216;12.396;2022-10-17T17:20:15;15.10;84.60
70366;DHT22;57787;48.216;12.396;2022-10-17T17:22:42;15.00;84.90
70366;DHT22;57787;48.216;12.396;2022-10-17T17:25:11;14.90;85.00
70366;DHT22;57787;48.216;12.396;2022-10-17T17:27:40;14.90;85.00
70366;DHT22;57787;48.216;12.396;2022-10-17T17:30:07;14.80;85.10
70366;DHT22;57787;48.216;12.396;2022-10-17T17:32:34;14.80;85.50
70366;DHT22;57787;48.216;12.396;2022-10-17T17:35:01;14.70;85.80
70366;DHT22;57787;48.216;12.396;2022-10-17T17:37:28;14.70;85.40
70366;DHT22;57787;48.216;12.396;2022-10-17T17:39:55;14.60;85.50
70366;DHT22;57787;48.216;12.396;2022-10-17T17:42:22;14.50;85.10
70366;DHT22;57787;48.216;12.396;2022-10-17T17:44:49;14.40;85.40
70366;DHT22;57787;48.216;12.396;2022-10-17T17:47:16;14.40;85.40